sensor_id;sensor_type;location;lat;lon;timestamp;pressure;altitude;pressure_sealevel;temperature;humidity
80335;BME280;69653;52.674;13.574;2023-05-07T00:00:33;101405.03;;;7.88;84.09
80335;BME280;69653;52.674;13.574;2023-05-07T00:02:59;101408.56;;;7.88;83.83
80335;BME280;69653;52.674;13.574;2023-05-07T00:05:24;101403.38;;;7.87;84.01
80335;BME280;69653;52.674;13.574;2023-05-07T00:07:50;101396.28;;;7.86;83.98
80335;BME280;69653;52.674;13.574;2023-05-07T00:10:17;101403.13;;;7.88;83.79
80335;BME280;69653;52.674;13.574;2023-05-07T00:12:43;101393.00;;;7.84;83.75
80335;BME280;69653;52.674;13.574;2023-05-07T00:15:08;101396.56;;;7.84;83.81
80335;BME280;69653;52.674;13.574;2023-05-07T00:17:34;101397.38;;;7.85;83.40
80335;BME280;69653;52.674;13.574;2023-05-07T00:19:59;101397.38;;;7.85;83.73
80335;BME280;69653;52.674;13.574;2023-05-07T00:22:25;101398.16;;;7.80;83.93
80335;BME280;69653;52.674;13.574;2023-05-07T00:24:50;101395.75;;;7.84;83.53
80335;BME280;69653;52.674;13.574;2023-05-07T00:27:15;101407.47;;;7.84;84.01
80335;BME280;69653;52.674;13.574;2023-05-07T00:29:41;101401.72;;;7.80;83.46
80335;BME280;69653;52.674;13.574;2023-05-07T00:32:06;101400.06;;;7.79;83.77
80335;BME280;69653;52.674;13.574;2023-05-07T00:34:31;101399.81;;;7.86;83.31
80335;BME280;69653;52.674;13.574;2023-05-07T00:36:57;101394.06;;;7.77;84.43
80335;BME280;69653;52.674;13.574;2023-05-07T00:39:22;101403.38;;;7.82;83.75
80335;BME280;69653;52.674;13.574;2023-05-07T00:41:47;101398.41;;;7.78;84.13
80335;BME280;69653;52.674;13.574;2023-05-07T00:44:13;101398.13;;;7.75;83.98
80335;BME280;69653;52.674;13.574;2023-05-07T00:46:39;101400.06;;;7.79;84.18
80335;BME280;69653;52.674;13.574;2023-05-07T00:49:05;101399.75;;;7.76;83.97
80335;BME280;69653;52.674;13.574;2023-05-07T00:51:31;101399.47;;;7.72;84.09
80335;BME280;69653;52.674;13.574;2023-05-07T00:53:56;101406.63;;;7.84;83.53
80335;BME280;69653;52.674;13.574;2023-05-07T00:56:21;101396.28;;;7.80;83.52
80335;BME280;69653;52.674;13.574;2023-05-07T00:58:48;101407.97;;;7.81;83.65
80335;BME280;69653;52.674;13.574;2023-05-07T01:01:13;101389.41;;;7.73;83.73
80335;BME280;69653;52.674;13.574;2023-05-07T01:03:41;101400.00;;;7.74;83.77
80335;BME280;69653;52.674;13.574;2023-05-07T01:06:07;101391.84;;;7.74;83.85
80335;BME280;69653;52.674;13.574;2023-05-07T01:08:33;101401.13;;;7.73;83.41
80335;BME280;69653;52.674;13.574;2023-05-07T01:11:00;101399.75;;;7.76;83.54
80335;BME280;69653;52.674;13.574;2023-05-07T01:13:25;101392.97;;;7.78;82.84
80335;BME280;69653;52.674;13.574;2023-05-07T01:15:52;101391.06;;;7.74;83.86
80335;BME280;69653;52.674;13.574;2023-05-07T01:18:17;101396.75;;;7.72;83.36
80335;BME280;69653;52.674;13.574;2023-05-07T01:20:43;101390.72;;;7.70;83.83
80335;BME280;69653;52.674;13.574;2023-05-07T01:23:10;101394.84;;;7.73;83.49
80335;BME280;69653;52.674;13.574;2023-05-07T01:25:36;101404.38;;;7.75;83.47
80335;BME280;69653;52.674;13.574;2023-05-07T01:28:01;101410.41;;;7.77;82.98
80335;BME280;69653;52.674;13.574;2023-05-07T01:30:28;101396.44;;;7.69;83.26
80335;BME280;69653;52.674;13.574;2023-05-07T01:33:09;101407.69;;;7.77;82.73
80335;BME280;69653;52.674;13.574;2023-05-07T01:35:39;101405.47;;;7.74;82.79
80335;BME280;69653;52.674;13.574;2023-05-07T01:38:06;101410.38;;;7.72;82.98
80335;BME280;69653;52.674;13.574;2023-05-07T01:40:33;101401.63;;;7.70;82.88
80335;BME280;69653;52.674;13.574;2023-05-07T01:43:00;101398.34;;;7.68;82.99
80335;BME280;69653;52.674;13.574;2023-05-07T01:45:26;101403.25;;;7.71;82.14
80335;BME280;69653;52.674;13.574;2023-05-07T01:47:53;101408.19;;;7.74;82.21
80335;BME280;69653;52.674;13.574;2023-05-07T01:50:20;101421.50;;;7.71;82.25
80335;BME280;69653;52.674;13.574;2023-05-07T01:52:47;101416.34;;;7.69;82.52
80335;BME280;69653;52.674;13.574;2023-05-07T01:55:12;101419.00;;;7.64;82.13
80335;BME280;69653;52.674;13.574;2023-05-07T01:57:37;101419.53;;;7.61;82.36
80335;BME280;69653;52.674;13.574;2023-05-07T02:00:03;101426.63;;;7.62;82.86
80335;BME280;69653;52.674;13.574;2023-05-07T02:02:30;101421.13;;;7.57;81.75
80335;BME280;69653;52.674;13.574;2023-05-07T02:04:55;101436.94;;;7.60;82.29
80335;BME280;69653;52.674;13.574;2023-05-07T02:07:20;101432.25;;;7.56;81.34
80335;BME280;69653;52.674;13.574;2023-05-07T02:09:46;101429.53;;;7.56;81.70
80335;BME280;69653;52.674;13.574;2023-05-07T02:12:11;101427.91;;;7.55;81.79
80335;BME280;69653;52.674;13.574;2023-05-07T02:14:36;101426.50;;;7.52;82.43
80335;BME280;69653;52.674;13.574;2023-05-07T02:17:01;101423.78;;;7.52;82.27
80335;BME280;69653;52.674;13.574;2023-05-07T02:19:27;101417.56;;;7.52;82.15
80335;BME280;69653;52.674;13.574;2023-05-07T02:21:52;101425.75;;;7.57;81.84
80335;BME280;69653;52.674;13.574;2023-05-07T02:24:18;101430.94;;;7.58;81.87
80335;BME280;69653;52.674;13.574;2023-05-07T02:26:43;101433.66;;;7.58;81.95
80335;BME280;69653;52.674;13.574;2023-05-07T02:29:08;101429.00;;;7.54;81.23
80335;BME280;69653;52.674;13.574;2023-05-07T02:31:33;101446.16;;;7.54;81.75
80335;BME280;69653;52.674;13.574;2023-05-07T02:34:00;101442.59;;;7.54;80.85
80335;BME280;69653;52.674;13.574;2023-05-07T02:36:25;101438.53;;;7.56;80.67
80335;BME280;69653;52.674;13.574;2023-05-07T02:38:51;101440.69;;;7.54;80.95
80335;BME280;69653;52.674;13.574;2023-05-07T02:41:17;101446.50;;;7.63;80.84
80335;BME280;69653;52.674;13.574;2023-05-07T02:43:42;101448.09;;;7.59;80.40
80335;BME280;69653;52.674;13.574;2023-05-07T02:46:08;101445.09;;;7.60;80.63
80335;BME280;69653;52.674;13.574;2023-05-07T02:48:34;101441.25;;;7.56;80.72
80335;BME280;69653;52.674;13.574;2023-05-07T02:51:00;101447.28;;;7.58;81.06
80335;BME280;69653;52.674;13.574;2023-05-07T02:53:25;101445.88;;;7.56;80.76
80335;BME280;69653;52.674;13.574;2023-05-07T02:55:59;101450.22;;;7.52;80.74
80335;BME280;69653;52.674;13.574;2023-05-07T02:58:24;101448.59;;;7.56;81.27
80335;BME280;69653;52.674;13.574;2023-05-07T03:00:50;101455.69;;;7.57;81.04
80335;BME280;69653;52.674;13.574;2023-05-07T03:03:15;101451.88;;;7.58;80.28
80335;BME280;69653;52.674;13.574;2023-05-07T03:05:41;101456.81;;;7.61;80.08
80335;BME280;69653;52.674;13.574;2023-05-07T03:08:07;101454.84;;;7.56;80.75
80335;BME280;69653;52.674;13.574;2023-05-07T03:10:32;101459.78;;;7.59;80.67
80335;BME280;69653;52.674;13.574;2023-05-07T03:12:57;101460.28;;;7.51;80.52
80335;BME280;69653;52.674;13.574;2023-05-07T03:15:23;101452.59;;;7.48;81.15
80335;BME280;69653;52.674;13.574;2023-05-07T03:17:48;101455.66;;;7.52;80.84
80335;BME280;69653;52.674;13.574;2023-05-07T03:20:13;101471.16;;;7.51;81.45
80335;BME280;69653;52.674;13.574;2023-05-07T03:22:39;101458.09;;;7.53;80.24
80335;BME280;69653;52.674;13.574;2023-05-07T03:25:05;101470.06;;;7.52;80.72
80335;BME280;69653;52.674;13.574;2023-05-07T03:27:31;101456.22;;;7.54;80.42
80335;BME280;69653;52.674;13.574;2023-05-07T03:29:56;101458.03;;;7.48;80.48
80335;BME280;69653;52.674;13.574;2023-05-07T03:32:21;101461.34;;;7.50;80.06
80335;BME280;69653;52.674;13.574;2023-05-07T03:34:47;101465.41;;;7.48;80.57
80335;BME280;69653;52.674;13.574;2023-05-07T03:37:12;101464.91;;;7.51;80.71
80335;BME280;69653;52.674;13.574;2023-05-07T03:39:37;101467.84;;;7.49;80.32
80335;BME280;69653;52.674;13.574;2023-05-07T03:42:03;101465.13;;;7.49;79.89
80335;BME280;69653;52.674;13.574;2023-05-07T03:44:28;101472.75;;;7.47;80.26
80335;BME280;69653;52.674;13.574;2023-05-07T03:46:53;101471.72;;;7.53;79.91
80335;BME280;69653;52.674;13.574;2023-05-07T03:49:19;101473.31;;;7.49;80.11
80335;BME280;69653;52.674;13.574;2023-05-07T03:51:44;101474.38;;;7.48;80.18
80335;BME280;69653;52.674;13.574;2023-05-07T03:54:10;101477.63;;;7.45;80.20
80335;BME280;69653;52.674;13.574;2023-05-07T03:56:35;101474.66;;;7.47;80.79
80335;BME280;69653;52.674;13.574;2023-05-07T03:59:01;101480.94;;;7.52;80.44
80335;BME280;69653;52.674;13.574;2023-05-07T04:01:26;101479.06;;;7.53;80.00
80335;BME280;69653;52.674;13.574;2023-05-07T04:03:52;101483.66;;;7.52;80.17
80335;BME280;69653;52.674;13.574;2023-05-07T04:06:17;101487.72;;;7.50;80.71
80335;BME280;69653;52.674;13.574;2023-05-07T04:08:42;101487.72;;;7.50;81.11
80335;BME280;69653;52.674;13.574;2023-05-07T04:11:08;101486.09;;;7.49;81.05
80335;BME280;69653;52.674;13.574;2023-05-07T04:13:33;101490.47;;;7.50;81.45
80335;BME280;69653;52.674;13.574;2023-05-07T04:15:58;101491.53;;;7.49;81.55
80335;BME280;69653;52.674;13.574;2023-05-07T04:18:23;101491.81;;;7.47;80.75
80335;BME280;69653;52.674;13.574;2023-05-07T04:20:49;101499.97;;;7.47;80.15
80335;BME280;69653;52.674;13.574;2023-05-07T04:23:15;101487.69;;;7.45;80.45
80335;BME280;69653;52.674;13.574;2023-05-07T04:25:40;101496.97;;;7.49;81.04
80335;BME280;69653;52.674;13.574;2023-05-07T04:28:06;101511.97;;;7.51;80.77
80335;BME280;69653;52.674;13.574;2023-05-07T04:30:31;101505.44;;;7.52;80.59
80335;BME280;69653;52.674;13.574;2023-05-07T04:32:57;101499.44;;;7.50;80.00
80335;BME280;69653;52.674;13.574;2023-05-07T04:35:22;101501.03;;;7.46;80.15
80335;BME280;69653;52.674;13.574;2023-05-07T04:37:47;101499.44;;;7.50;80.22
80335;BME280;69653;52.674;13.574;2023-05-07T04:40:13;101495.91;;;7.50;80.73
80335;BME280;69653;52.674;13.574;2023-05-07T04:42:38;101488.25;;;7.47;80.08
80335;BME280;69653;52.674;13.574;2023-05-07T04:45:04;101498.09;;;7.53;80.82
80335;BME280;69653;52.674;13.574;2023-05-07T04:47:30;101508.28;;;7.62;79.93
80335;BME280;69653;52.674;13.574;2023-05-07T04:49:55;101508.00;;;7.64;79.50
80335;BME280;69653;52.674;13.574;2023-05-07T04:52:20;101512.94;;;7.67;79.65
80335;BME280;69653;52.674;13.574;2023-05-07T04:54:46;101505.28;;;7.64;79.80
80335;BME280;69653;52.674;13.574;2023-05-07T04:57:11;101512.69;;;7.68;79.90
80335;BME280;69653;52.674;13.574;2023-05-07T04:59:37;101517.31;;;7.68;79.98
80335;BME280;69653;52.674;13.574;2023-05-07T05:02:02;101521.72;;;7.74;79.57
80335;BME280;69653;52.674;13.574;2023-05-07T05:04:29;101517.66;;;7.76;79.35
80335;BME280;69653;52.674;13.574;2023-05-07T05:06:54;101505.19;;;7.80;78.84
80335;BME280;69653;52.674;13.574;2023-05-07T05:09:20;101523.78;;;7.89;78.58
80335;BME280;69653;52.674;13.574;2023-05-07T05:11:45;101525.38;;;7.90;78.56
80335;BME280;69653;52.674;13.574;2023-05-07T05:14:10;101531.34;;;7.87;78.46
80335;BME280;69653;52.674;13.574;2023-05-07T05:16:36;101516.19;;;7.96;78.28
80335;BME280;69653;52.674;13.574;2023-05-07T05:19:01;101514.09;;;8.08;77.22
80335;BME280;69653;52.674;13.574;2023-05-07T05:21:27;101528.94;;;8.27;77.01
80335;BME280;69653;52.674;13.574;2023-05-07T05:23:52;101520.91;;;8.42;75.86
80335;BME280;69653;52.674;13.574;2023-05-07T05:26:18;101523.50;;;8.64;74.67
80335;BME280;69653;52.674;13.574;2023-05-07T05:28:43;101513.19;;;8.76;73.99
80335;BME280;69653;52.674;13.574;2023-05-07T05:31:09;101526.69;;;9.03;72.96
80335;BME280;69653;52.674;13.574;2023-05-07T05:33:35;101522.31;;;9.02;72.80
80335;BME280;69653;52.674;13.574;2023-05-07T05:36:00;101529.47;;;9.23;71.73
80335;BME280;69653;52.674;13.574;2023-05-07T05:38:26;101525.72;;;9.34;72.21
80335;BME280;69653;52.674;13.574;2023-05-07T05:40:51;101519.22;;;9.70;70.44
80335;BME280;69653;52.674;13.574;2023-05-07T05:43:16;101528.25;;;9.86;69.82
80335;BME280;69653;52.674;13.574;2023-05-07T05:45:42;101517.84;;;9.63;70.09
80335;BME280;69653;52.674;13.574;2023-05-07T05:48:07;101517.31;;;9.66;69.65
80335;BME280;69653;52.674;13.574;2023-05-07T05:50:33;101525.78;;;9.69;69.74
80335;BME280;69653;52.674;13.574;2023-05-07T05:53:00;101525.25;;;9.78;70.02
80335;BME280;69653;52.674;13.574;2023-05-07T05:55:26;101524.16;;;9.99;69.32
80335;BME280;69653;52.674;13.574;2023-05-07T05:57:51;101524.16;;;10.14;68.65
80335;BME280;69653;52.674;13.574;2023-05-07T06:00:17;101518.72;;;10.19;68.10
80335;BME280;69653;52.674;13.574;2023-05-07T06:02:42;101534.56;;;10.22;67.62
80335;BME280;69653;52.674;13.574;2023-05-07T06:05:08;101529.91;;;10.38;66.96
80335;BME280;69653;52.674;13.574;2023-05-07T06:07:34;101538.88;;;10.63;66.51
80335;BME280;69653;52.674;13.574;2023-05-07T06:10:00;101544.53;;;10.87;65.58
80335;BME280;69653;52.674;13.574;2023-05-07T06:12:25;101545.78;;;11.25;64.66
80335;BME280;69653;52.674;13.574;2023-05-07T06:14:51;101556.00;;;11.58;63.01
80335;BME280;69653;52.674;13.574;2023-05-07T06:17:16;101561.88;;;11.32;63.88
80335;BME280;69653;52.674;13.574;2023-05-07T06:19:41;101561.16;;;11.11;64.11
80335;BME280;69653;52.674;13.574;2023-05-07T06:22:07;101553.66;;;11.37;62.87
80335;BME280;69653;52.674;13.574;2023-05-07T06:24:32;101560.44;;;11.49;63.87
80335;BME280;69653;52.674;13.574;2023-05-07T06:26:57;101561.28;;;11.50;63.77
80335;BME280;69653;52.674;13.574;2023-05-07T06:29:23;101554.81;;;11.26;63.69
80335;BME280;69653;52.674;13.574;2023-05-07T06:31:52;101554.13;;;10.90;65.12
80335;BME280;69653;52.674;13.574;2023-05-07T06:34:17;101556.91;;;10.75;65.86
80335;BME280;69653;52.674;13.574;2023-05-07T06:36:42;101557.69;;;10.90;65.94
80335;BME280;69653;52.674;13.574;2023-05-07T06:39:08;101559.88;;;10.88;65.44
80335;BME280;69653;52.674;13.574;2023-05-07T06:41:33;101570.56;;;10.90;65.83
80335;BME280;69653;52.674;13.574;2023-05-07T06:43:59;101566.88;;;11.19;64.05
80335;BME280;69653;52.674;13.574;2023-05-07T06:46:24;101569.06;;;11.17;65.23
80335;BME280;69653;52.674;13.574;2023-05-07T06:48:50;101568.53;;;11.80;63.49
80335;BME280;69653;52.674;13.574;2023-05-07T06:51:15;101564.13;;;12.46;60.33
80335;BME280;69653;52.674;13.574;2023-05-07T06:53:41;101569.94;;;12.69;58.85
80335;BME280;69653;52.674;13.574;2023-05-07T06:56:06;101565.41;;;12.83;57.60
80335;BME280;69653;52.674;13.574;2023-05-07T06:58:32;101585.94;;;13.14;57.18
80335;BME280;69653;52.674;13.574;2023-05-07T07:00:57;101590.00;;;13.40;56.60
80335;BME280;69653;52.674;13.574;2023-05-07T07:03:22;101600.34;;;13.67;55.22
80335;BME280;69653;52.674;13.574;2023-05-07T07:05:51;101588.44;;;13.34;55.06
80335;BME280;69653;52.674;13.574;2023-05-07T07:08:17;101591.00;;;13.49;54.00
80335;BME280;69653;52.674;13.574;2023-05-07T07:10:43;101599.19;;;13.31;54.46
80335;BME280;69653;52.674;13.574;2023-05-07T07:13:08;101594.03;;;13.00;56.04
80335;BME280;69653;52.674;13.574;2023-05-07T07:15:33;101595.13;;;12.76;57.34
80335;BME280;69653;52.674;13.574;2023-05-07T07:17:58;101595.34;;;13.32;56.75
80335;BME280;69653;52.674;13.574;2023-05-07T07:20:24;101595.25;;;13.79;54.45
80335;BME280;69653;52.674;13.574;2023-05-07T07:22:49;101589.34;;;14.23;53.20
80335;BME280;69653;52.674;13.574;2023-05-07T07:25:14;101593.63;;;14.29;51.67
80335;BME280;69653;52.674;13.574;2023-05-07T07:27:40;101596.06;;;14.17;51.90
80335;BME280;69653;52.674;13.574;2023-05-07T07:30:06;101591.25;;;14.74;51.37
80335;BME280;69653;52.674;13.574;2023-05-07T07:32:31;101592.00;;;15.20;48.94
80335;BME280;69653;52.674;13.574;2023-05-07T07:34:58;101597.81;;;14.91;49.30
80335;BME280;69653;52.674;13.574;2023-05-07T07:37:23;101599.84;;;14.99;48.31
80335;BME280;69653;52.674;13.574;2023-05-07T07:39:50;101596.44;;;14.89;48.76
80335;BME280;69653;52.674;13.574;2023-05-07T07:42:15;101606.56;;;15.34;47.55
80335;BME280;69653;52.674;13.574;2023-05-07T07:44:41;101594.13;;;15.10;47.58
80335;BME280;69653;52.674;13.574;2023-05-07T07:47:06;101588.22;;;15.16;47.74
80335;BME280;69653;52.674;13.574;2023-05-07T07:49:31;101594.75;;;15.20;47.60
80335;BME280;69653;52.674;13.574;2023-05-07T07:51:57;101598.13;;;15.17;47.55
80335;BME280;69653;52.674;13.574;2023-05-07T07:54:24;101588.19;;;15.30;47.17
80335;BME280;69653;52.674;13.574;2023-05-07T07:56:50;101588.59;;;15.78;46.88
80335;BME280;69653;52.674;13.574;2023-05-07T07:59:15;101588.44;;;15.83;46.45
80335;BME280;69653;52.674;13.574;2023-05-07T08:01:44;101590.03;;;16.42;45.98
80335;BME280;69653;52.674;13.574;2023-05-07T08:04:09;101590.00;;;16.56;45.06
80335;BME280;69653;52.674;13.574;2023-05-07T08:06:34;101592.56;;;16.74;43.84
80335;BME280;69653;52.674;13.574;2023-05-07T08:09:00;101594.78;;;16.64;43.42
80335;BME280;69653;52.674;13.574;2023-05-07T08:11:26;101593.25;;;16.35;44.18
80335;BME280;69653;52.674;13.574;2023-05-07T08:13:51;101588.28;;;16.68;44.57
80335;BME280;69653;52.674;13.574;2023-05-07T08:16:16;101587.22;;;16.78;44.06
80335;BME280;69653;52.674;13.574;2023-05-07T08:18:42;101597.81;;;15.95;45.24
80335;BME280;69653;52.674;13.574;2023-05-07T08:21:07;101595.34;;;15.58;46.58
80335;BME280;69653;52.674;13.574;2023-05-07T08:23:33;101600.59;;;15.95;46.22
80335;BME280;69653;52.674;13.574;2023-05-07T08:25:59;101590.75;;;16.03;45.54
80335;BME280;69653;52.674;13.574;2023-05-07T08:28:25;101603.59;;;15.72;45.83
80335;BME280;69653;52.674;13.574;2023-05-07T08:30:50;101608.03;;;15.95;46.25
80335;BME280;69653;52.674;13.574;2023-05-07T08:33:16;101589.34;;;15.92;45.90
80335;BME280;69653;52.674;13.574;2023-05-07T08:35:41;101584.44;;;15.26;47.06
80335;BME280;69653;52.674;13.574;2023-05-07T08:38:06;101586.28;;;15.03;48.11
80335;BME280;69653;52.674;13.574;2023-05-07T08:40:36;101596.66;;;14.79;48.76
80335;BME280;69653;52.674;13.574;2023-05-07T08:43:05;101589.63;;;14.86;48.89
80335;BME280;69653;52.674;13.574;2023-05-07T08:45:33;101584.19;;;14.68;49.12
80335;BME280;69653;52.674;13.574;2023-05-07T08:48:00;101597.38;;;14.98;49.38
80335;BME280;69653;52.674;13.574;2023-05-07T08:50:27;101602.06;;;15.11;48.98
80335;BME280;69653;52.674;13.574;2023-05-07T08:52:52;101607.09;;;15.50;48.47
80335;BME280;69653;52.674;13.574;2023-05-07T08:55:18;101598.31;;;15.62;47.17
80335;BME280;69653;52.674;13.574;2023-05-07T08:57:43;101597.13;;;16.12;46.11
80335;BME280;69653;52.674;13.574;2023-05-07T09:00:09;101596.75;;;16.49;45.12
80335;BME280;69653;52.674;13.574;2023-05-07T09:02:35;101603.03;;;16.19;45.48
80335;BME280;69653;52.674;13.574;2023-05-07T09:05:01;101593.28;;;16.58;45.08
80335;BME280;69653;52.674;13.574;2023-05-07T09:07:26;101600.50;;;17.07;44.35
80335;BME280;69653;52.674;13.574;2023-05-07T09:09:52;101606.00;;;15.87;45.95
80335;BME280;69653;52.674;13.574;2023-05-07T09:12:18;101604.06;;;15.51;47.26
80335;BME280;69653;52.674;13.574;2023-05-07T09:14:44;101619.94;;;15.27;48.01
80335;BME280;69653;52.674;13.574;2023-05-07T09:17:10;101608.56;;;15.83;47.56
80335;BME280;69653;52.674;13.574;2023-05-07T09:19:35;101592.78;;;16.33;45.67
80335;BME280;69653;52.674;13.574;2023-05-07T09:22:02;101608.38;;;16.60;44.42
80335;BME280;69653;52.674;13.574;2023-05-07T09:24:27;101602.22;;;16.85;44.50
80335;BME280;69653;52.674;13.574;2023-05-07T09:26:57;101609.75;;;16.71;44.15
80335;BME280;69653;52.674;13.574;2023-05-07T09:29:22;101608.72;;;16.59;45.52
80335;BME280;69653;52.674;13.574;2023-05-07T09:31:48;101612.44;;;15.96;46.45
80335;BME280;69653;52.674;13.574;2023-05-07T09:34:13;101605.22;;;16.53;45.59
80335;BME280;69653;52.674;13.574;2023-05-07T09:36:38;101610.97;;;16.57;45.14
80335;BME280;69653;52.674;13.574;2023-05-07T09:39:04;101595.81;;;16.76;43.88
80335;BME280;69653;52.674;13.574;2023-05-07T09:41:30;101604.16;;;16.85;43.98
80335;BME280;69653;52.674;13.574;2023-05-07T09:43:57;101603.47;;;16.79;44.29
80335;BME280;69653;52.674;13.574;2023-05-07T09:46:29;101609.22;;;16.91;44.47
80335;BME280;69653;52.674;13.574;2023-05-07T09:48:57;101605.78;;;16.41;44.27
80335;BME280;69653;52.674;13.574;2023-05-07T09:51:29;101603.16;;;15.92;45.50
80335;BME280;69653;52.674;13.574;2023-05-07T09:53:56;101606.50;;;15.67;47.40
80335;BME280;69653;52.674;13.574;2023-05-07T09:56:22;101599.44;;;15.47;47.97
80335;BME280;69653;52.674;13.574;2023-05-07T09:58:48;101608.06;;;14.86;49.29
80335;BME280;69653;52.674;13.574;2023-05-07T10:01:16;101603.72;;;14.85;49.32
80335;BME280;69653;52.674;13.574;2023-05-07T10:03:43;101600.56;;;14.59;49.46
80335;BME280;69653;52.674;13.574;2023-05-07T10:06:09;101602.41;;;14.31;50.49
80335;BME280;69653;52.674;13.574;2023-05-07T10:08:36;101601.56;;;14.17;50.61
80335;BME280;69653;52.674;13.574;2023-05-07T10:11:05;101609.41;;;14.24;50.63
80335;BME280;69653;52.674;13.574;2023-05-07T10:13:32;101615.00;;;14.37;50.28
80335;BME280;69653;52.674;13.574;2023-05-07T10:16:00;101601.00;;;14.34;49.98
80335;BME280;69653;52.674;13.574;2023-05-07T10:18:26;101610.75;;;14.26;50.26
80335;BME280;69653;52.674;13.574;2023-05-07T10:21:07;101616.41;;;14.16;50.99
80335;BME280;69653;52.674;13.574;2023-05-07T10:23:33;101611.69;;;14.54;50.89
80335;BME280;69653;52.674;13.574;2023-05-07T10:26:04;101623.59;;;14.49;50.44
80335;BME280;69653;52.674;13.574;2023-05-07T10:28:33;101619.75;;;14.50;49.87
80335;BME280;69653;52.674;13.574;2023-05-07T10:31:44;101620.88;;;14.63;49.22
80335;BME280;69653;52.674;13.574;2023-05-07T10:34:10;101612.03;;;14.66;49.23
80335;BME280;69653;52.674;13.574;2023-05-07T10:36:36;101615.16;;;14.92;48.97
80335;BME280;69653;52.674;13.574;2023-05-07T10:39:02;101619.00;;;14.91;48.30
80335;BME280;69653;52.674;13.574;2023-05-07T10:41:28;101620.25;;;14.85;48.96
80335;BME280;69653;52.674;13.574;2023-05-07T10:43:53;101621.53;;;14.74;49.04
80335;BME280;69653;52.674;13.574;2023-05-07T10:46:20;101611.84;;;14.76;48.53
80335;BME280;69653;52.674;13.574;2023-05-07T10:51:32;101608.06;;;16.39;44.41
80335;BME280;69653;52.674;13.574;2023-05-07T10:56:36;101615.84;;;16.15;44.28
80335;BME280;69653;52.674;13.574;2023-05-07T11:01:59;101627.75;;;16.91;42.15
80335;BME280;69653;52.674;13.574;2023-05-07T11:04:28;101614.97;;;16.73;42.01
80335;BME280;69653;52.674;13.574;2023-05-07T11:15:03;101623.63;;;15.23;46.89
80335;BME280;69653;52.674;13.574;2023-05-07T11:17:29;101616.09;;;15.15;47.19
80335;BME280;69653;52.674;13.574;2023-05-07T11:19:57;101615.06;;;15.11;47.04
80335;BME280;69653;52.674;13.574;2023-05-07T11:25:04;101614.13;;;15.56;46.32
80335;BME280;69653;52.674;13.574;2023-05-07T11:27:31;101611.38;;;15.29;45.87
80335;BME280;69653;52.674;13.574;2023-05-07T11:29:57;101610.56;;;15.69;44.10
80335;BME280;69653;52.674;13.574;2023-05-07T11:32:23;101597.91;;;16.26;44.61
80335;BME280;69653;52.674;13.574;2023-05-07T11:34:51;101603.78;;;16.78;42.01
80335;BME280;69653;52.674;13.574;2023-05-07T11:37:18;101611.56;;;17.55;41.50
80335;BME280;69653;52.674;13.574;2023-05-07T11:39:43;101607.25;;;17.97;39.72
80335;BME280;69653;52.674;13.574;2023-05-07T11:44:52;101603.31;;;17.72;38.17
80335;BME280;69653;52.674;13.574;2023-05-07T11:47:18;101604.50;;;17.97;37.24
80335;BME280;69653;52.674;13.574;2023-05-07T11:49:47;101607.25;;;18.22;37.46
80335;BME280;69653;52.674;13.574;2023-05-07T11:52:13;101613.94;;;18.21;37.67
80335;BME280;69653;52.674;13.574;2023-05-07T11:54:38;101612.28;;;18.20;37.93
80335;BME280;69653;52.674;13.574;2023-05-07T11:57:03;101594.56;;;18.30;38.22
80335;BME280;69653;52.674;13.574;2023-05-07T11:59:29;101602.34;;;18.62;36.83
80335;BME280;69653;52.674;13.574;2023-05-07T12:01:57;101594.91;;;18.92;37.93
80335;BME280;69653;52.674;13.574;2023-05-07T12:04:24;101597.78;;;18.40;37.04
80335;BME280;69653;52.674;13.574;2023-05-07T12:06:53;101603.03;;;18.08;38.05
80335;BME280;69653;52.674;13.574;2023-05-07T12:09:19;101608.72;;;17.85;38.86
80335;BME280;69653;52.674;13.574;2023-05-07T12:11:45;101610.16;;;17.66;39.37
80335;BME280;69653;52.674;13.574;2023-05-07T12:14:11;101596.69;;;16.94;39.62
80335;BME280;69653;52.674;13.574;2023-05-07T12:16:37;101593.06;;;16.54;40.24
80335;BME280;69653;52.674;13.574;2023-05-07T12:19:04;101595.81;;;16.54;40.77
80335;BME280;69653;52.674;13.574;2023-05-07T12:21:31;101600.63;;;16.93;39.80
80335;BME280;69653;52.674;13.574;2023-05-07T12:23:56;101604.13;;;17.16;39.74
80335;BME280;69653;52.674;13.574;2023-05-07T12:26:22;101595.94;;;17.41;38.97
80335;BME280;69653;52.674;13.574;2023-05-07T12:28:47;101596.66;;;17.81;39.46
80335;BME280;69653;52.674;13.574;2023-05-07T12:31:13;101596.97;;;17.63;38.62
80335;BME280;69653;52.674;13.574;2023-05-07T12:33:39;101614.59;;;18.01;39.76
80335;BME280;69653;52.674;13.574;2023-05-07T12:36:06;101602.03;;;18.29;38.62
80335;BME280;69653;52.674;13.574;2023-05-07T12:38:36;101606.25;;;18.61;37.82
80335;BME280;69653;52.674;13.574;2023-05-07T12:41:02;101607.22;;;18.39;37.54
80335;BME280;69653;52.674;13.574;2023-05-07T12:43:28;101605.44;;;18.09;38.52
80335;BME280;69653;52.674;13.574;2023-05-07T12:45:57;101594.22;;;18.14;39.04
80335;BME280;69653;52.674;13.574;2023-05-07T12:48:23;101609.53;;;17.77;39.15
80335;BME280;69653;52.674;13.574;2023-05-07T12:50:52;101595.75;;;17.46;39.40
80335;BME280;69653;52.674;13.574;2023-05-07T12:53:20;101586.97;;;17.53;38.87
80335;BME280;69653;52.674;13.574;2023-05-07T12:55:48;101599.75;;;18.06;38.96
80335;BME280;69653;52.674;13.574;2023-05-07T12:58:19;101591.78;;;18.04;36.91
80335;BME280;69653;52.674;13.574;2023-05-07T13:00:48;101594.53;;;18.21;37.32